createdAt,value
2018-03-16T03:28:51.404Z,8.87
2018-03-16T03:29:51.364Z,8.79
2018-03-16T03:30:51.348Z,8.83
2018-03-16T03:31:51.580Z,8.73
2018-03-16T03:32:51.319Z,8.83
2018-03-16T03:33:51.301Z,8.75
2018-03-16T03:34:51.310Z,8.83
2018-03-16T03:35:51.325Z,8.76
2018-03-16T03:36:51.315Z,8.90
2018-03-16T03:38:00.484Z,8.93
2018-03-16T03:39:46.534Z,8.88
2018-03-16T03:40:46.525Z,9.02
2018-03-16T03:41:46.564Z,8.93
2018-03-16T03:42:46.499Z,8.90
2018-03-16T03:43:46.519Z,9.01
2018-03-16T03:44:46.487Z,9.02
2018-03-16T03:45:46.517Z,9.05
2018-03-16T03:46:46.468Z,9.06
2018-03-16T03:47:47.154Z,9.04
2018-03-16T03:48:46.455Z,9.09
2018-03-16T03:49:46.454Z,9.12
2018-03-16T03:50:46.444Z,9.10
2018-03-16T03:51:46.442Z,9.12
2018-03-16T03:52:46.433Z,9.10
2018-03-16T03:53:46.431Z,9.13
2018-03-16T03:54:46.421Z,9.02
2018-03-16T03:55:46.430Z,9.02
2018-03-16T03:56:46.461Z,9.02
2018-03-16T03:57:46.426Z,9.01
2018-03-16T03:58:46.411Z,9.04
2018-03-16T03:59:46.417Z,9.06
2018-03-16T04:00:46.404Z,8.96
2018-03-16T04:01:46.406Z,8.97
2018-03-16T04:02:46.394Z,8.96
2018-03-16T04:03:46.379Z,8.96
2018-03-16T04:04:46.381Z,8.91
2018-03-16T04:05:46.398Z,8.91
2018-03-16T04:06:46.364Z,8.90
2018-03-16T04:07:46.361Z,8.90
2018-03-16T04:08:46.357Z,8.87
2018-03-16T04:09:46.361Z,8.86
2018-03-16T04:10:46.343Z,8.79
2018-03-16T04:11:46.351Z,8.79
2018-03-16T04:12:46.411Z,8.87
2018-03-16T04:13:46.336Z,8.76
2018-03-16T04:14:46.339Z,8.83
2018-03-16T04:15:46.349Z,8.87
2018-03-16T04:16:46.319Z,8.87
2018-03-16T04:17:46.311Z,8.88
2018-03-16T04:18:46.354Z,8.73
2018-03-16T04:19:46.306Z,8.81
2018-03-16T04:20:46.330Z,8.84
2018-03-16T04:21:46.313Z,8.81
2018-03-16T04:22:46.292Z,8.71
2018-03-16T04:23:46.299Z,8.73
2018-03-16T04:24:46.284Z,8.69
2018-03-16T04:25:46.280Z,8.72
2018-03-16T04:26:46.288Z,8.71
2018-03-16T04:27:46.270Z,8.68
2018-03-16T04:28:46.262Z,8.83
2018-03-16T04:29:46.260Z,8.71
2018-03-16T04:30:46.269Z,8.72
2018-03-16T04:31:46.285Z,8.76
2018-03-16T04:32:46.254Z,8.69
2018-03-16T04:33:46.296Z,8.75
2018-03-16T04:34:46.258Z,8.76
2018-03-16T04:35:46.229Z,8.69
2018-03-16T04:36:46.229Z,8.72
2018-03-16T04:37:46.218Z,8.65
2018-03-16T04:38:46.221Z,8.65
2018-03-16T04:39:46.243Z,8.63
2018-03-16T04:40:46.210Z,8.71
2018-03-16T04:41:46.231Z,8.79
2018-03-16T04:42:46.224Z,8.87
2018-03-16T04:43:46.191Z,8.87
2018-03-16T04:44:46.186Z,8.75
2018-03-16T04:45:46.187Z,8.78
2018-03-16T04:46:46.181Z,8.87
2018-03-16T04:47:46.181Z,8.90
2018-03-16T04:48:46.179Z,8.91
2018-03-16T04:49:56.073Z,8.97
2018-03-16T04:51:39.895Z,8.97
2018-03-16T04:52:39.598Z,8.94
2018-03-16T04:53:39.655Z,8.91
2018-03-16T04:54:41.497Z,8.91
2018-03-16T04:55:39.578Z,9.01
2018-03-16T04:56:39.627Z,8.96
2018-03-16T04:57:39.572Z,9.05
2018-03-16T04:58:39.569Z,9.04
2018-03-16T04:59:39.723Z,8.93
2018-03-16T05:00:39.630Z,8.91
2018-03-16T05:01:39.533Z,9.01
2018-03-16T05:02:39.558Z,9.02
2018-03-16T05:03:39.532Z,9.05
2018-03-16T05:04:39.812Z,8.94
2018-03-16T05:05:39.544Z,9.04
2018-03-16T05:06:39.530Z,8.91
2018-03-16T05:07:39.506Z,8.97
2018-03-16T05:08:39.591Z,8.93
2018-03-16T05:09:39.546Z,8.96
2018-03-16T05:10:39.584Z,8.88
2018-03-16T05:11:39.515Z,8.90
2018-03-16T05:12:39.538Z,8.90
2018-03-16T05:13:39.475Z,8.87
2018-03-16T05:14:39.593Z,8.91
2018-03-16T05:15:39.493Z,8.91
2018-03-16T05:16:39.543Z,8.91
2018-03-16T05:17:39.455Z,8.94
2018-03-16T05:18:39.504Z,8.87
2018-03-16T05:19:39.449Z,8.91
2018-03-16T05:20:39.620Z,8.90
2018-03-16T05:21:39.450Z,8.91
2018-03-16T05:22:39.438Z,8.94
2018-03-16T05:23:39.445Z,8.94
2018-03-16T05:24:39.454Z,9.01
2018-03-16T05:25:39.421Z,8.99
2018-03-16T05:26:39.433Z,8.99
2018-03-16T05:27:39.407Z,8.93
2018-03-16T05:28:39.405Z,8.93
2018-03-16T05:29:39.404Z,8.97
2018-03-16T05:30:39.452Z,8.99
2018-03-16T05:31:39.415Z,8.97
2018-03-16T05:32:39.409Z,8.88
2018-03-16T05:33:39.406Z,8.91
2018-03-16T05:34:39.385Z,8.94
2018-03-16T05:35:39.372Z,8.75
2018-03-16T05:36:39.375Z,8.79
2018-03-16T05:37:39.472Z,8.87
2018-03-16T05:38:39.380Z,8.91
2018-03-16T05:39:39.364Z,8.91
2018-03-16T05:40:39.412Z,8.91
2018-03-16T05:41:39.478Z,8.90
2018-03-16T05:42:39.368Z,8.96
2018-03-16T05:43:39.328Z,8.87
2018-03-16T05:44:39.319Z,8.86
2018-03-16T05:45:39.379Z,8.78
2018-03-16T05:46:39.321Z,8.88
2018-03-16T05:47:39.309Z,8.83
2018-03-16T05:48:39.358Z,8.86
2018-03-16T05:49:39.308Z,8.81
2018-03-16T05:50:39.295Z,8.91
2018-03-16T05:51:39.295Z,8.93
2018-03-16T05:52:39.308Z,8.96
2018-03-16T05:53:39.274Z,9.01
2018-03-16T05:54:39.270Z,8.97
2018-03-16T05:55:39.275Z,8.94
2018-03-16T05:56:39.289Z,8.94
2018-03-16T05:57:39.295Z,8.93
2018-03-16T05:58:39.280Z,9.02
2018-03-16T05:59:39.275Z,8.94
2018-03-16T06:00:39.320Z,8.96
2018-03-16T06:01:39.238Z,8.96
2018-03-16T06:02:48.971Z,8.96
2018-03-16T06:04:32.898Z,9.02
2018-03-16T06:05:41.376Z,8.91
2018-03-16T06:07:27.967Z,8.86
2018-03-16T06:09:47.072Z,9.01
2018-03-16T06:10:56.916Z,8.96
2018-03-16T06:12:45.639Z,9.01
2018-03-16T06:13:42.662Z,8.94
2018-03-16T06:14:42.695Z,8.94
2018-03-16T06:15:42.959Z,8.87
2018-03-16T06:16:42.618Z,8.84
2018-03-16T06:17:42.608Z,8.76
2018-03-16T06:18:42.624Z,8.83
2018-03-16T06:19:51.756Z,8.84
2018-03-16T06:21:37.201Z,8.76
2018-03-16T06:22:37.008Z,8.86
2018-03-16T06:24:31.398Z,8.71
2018-03-16T06:25:31.415Z,8.81
2018-03-16T06:26:31.854Z,8.78
2018-03-16T06:27:31.434Z,8.71
2018-03-16T06:28:31.579Z,8.86
2018-03-16T06:29:31.337Z,8.72
2018-03-16T06:30:31.330Z,8.78
2018-03-16T06:31:31.341Z,8.66
2018-03-16T06:32:31.319Z,8.71
2018-03-16T06:33:31.314Z,8.75
2018-03-16T06:34:31.320Z,8.63
2018-03-16T06:35:31.310Z,8.68
2018-03-16T06:36:31.297Z,8.65
2018-03-16T06:37:31.294Z,8.83
2018-03-16T06:38:31.290Z,8.71
2018-03-16T06:39:31.322Z,8.76
2018-03-16T06:40:31.280Z,8.75
2018-03-16T06:41:31.286Z,8.58
2018-03-16T06:42:31.289Z,8.66
2018-03-16T06:43:31.263Z,8.68
2018-03-16T06:44:31.269Z,8.81
2018-03-16T06:45:31.275Z,8.73
2018-03-16T06:46:31.246Z,8.69
2018-03-16T06:47:31.277Z,8.62
2018-03-16T06:48:31.244Z,8.63
2018-03-16T06:49:31.240Z,8.69
2018-03-16T06:50:31.222Z,8.75
2018-03-16T06:51:31.270Z,8.68
2018-03-16T06:52:31.384Z,8.69
2018-03-16T06:53:31.261Z,8.81
2018-03-16T06:54:31.308Z,8.88
2018-03-16T06:55:31.341Z,8.84
2018-03-16T06:56:31.268Z,8.76
2018-03-16T06:57:31.215Z,8.91
2018-03-16T06:58:31.201Z,8.75
2018-03-16T06:59:31.192Z,8.72
2018-03-16T07:00:31.202Z,8.66
2018-03-16T07:01:31.214Z,8.78
2018-03-16T07:02:31.222Z,8.87
2018-03-16T07:03:31.189Z,8.86
2018-03-16T07:04:31.862Z,8.90
2018-03-16T07:05:31.150Z,8.94
2018-03-16T07:06:31.198Z,9.10
2018-03-16T07:07:31.228Z,8.90
2018-03-16T07:08:31.192Z,8.91
2018-03-16T07:09:31.165Z,8.91
2018-03-16T07:10:31.236Z,8.91
2018-03-16T07:11:31.175Z,8.94
2018-03-16T07:12:31.142Z,8.90
2018-03-16T07:13:31.210Z,8.78
2018-03-16T07:14:31.188Z,8.91
2018-03-16T07:15:31.110Z,8.91
2018-03-16T07:16:31.123Z,8.87
2018-03-16T07:17:31.147Z,8.96
2018-03-16T07:18:31.123Z,8.96
2018-03-16T07:19:31.074Z,8.91
2018-03-16T07:20:31.064Z,8.96
2018-03-16T07:21:31.073Z,9.04
2018-03-16T07:22:31.117Z,8.97
2018-03-16T07:23:31.058Z,8.94
2018-03-16T07:24:31.072Z,8.99
2018-03-16T07:25:31.056Z,8.99
2018-03-16T07:26:31.038Z,8.94
2018-03-16T07:27:31.082Z,9.02
2018-03-16T07:28:31.037Z,9.09
2018-03-16T07:29:31.083Z,9.06
2018-03-16T07:30:31.013Z,9.04
2018-03-16T07:31:31.008Z,9.10
2018-03-16T07:32:31.118Z,8.97
2018-03-16T07:33:31.022Z,9.05
2018-03-16T07:34:31.000Z,9.05
2018-03-16T07:35:31.151Z,9.05
2018-03-16T07:36:31.119Z,9.06
2018-03-16T07:37:31.006Z,9.04
2018-03-16T07:38:31.061Z,9.06
2018-03-16T07:39:31.079Z,9.25
2018-03-16T07:40:31.084Z,9.28
2018-03-16T07:41:31.000Z,9.06
2018-03-16T07:42:30.999Z,9.04
2018-03-16T07:43:31.024Z,9.12
2018-03-16T07:44:31.108Z,9.30
2018-03-16T07:45:30.981Z,9.23
2018-03-16T07:46:30.998Z,9.27
2018-03-16T07:47:30.973Z,9.34
2018-03-16T07:48:30.943Z,9.39
2018-03-16T07:49:30.949Z,9.30
2018-03-16T07:50:30.933Z,9.32
2018-03-16T07:51:30.950Z,9.40
2018-03-16T07:52:30.940Z,9.42
2018-03-16T07:53:30.898Z,9.31
2018-03-16T07:54:30.878Z,9.42
2018-03-16T07:55:30.933Z,9.43
2018-03-16T07:56:30.873Z,9.35
2018-03-16T07:57:30.937Z,9.58
2018-03-16T07:58:30.897Z,9.48
2018-03-16T07:59:30.891Z,9.58
2018-03-16T08:00:30.989Z,9.71
2018-03-16T08:01:30.987Z,9.60
2018-03-16T08:02:30.868Z,9.64
2018-03-16T08:03:30.924Z,9.78
2018-03-16T08:04:30.835Z,9.73
2018-03-16T08:05:30.837Z,9.88
2018-03-16T08:06:30.842Z,9.71
2018-03-16T08:07:30.857Z,9.71
2018-03-16T08:08:30.871Z,9.71
2018-03-16T08:09:30.856Z,9.66
2018-03-16T08:10:30.871Z,9.71
2018-03-16T08:11:30.821Z,9.73
2018-03-16T08:12:30.792Z,9.81
2018-03-16T08:13:30.987Z,9.82
2018-03-16T08:14:30.796Z,9.91
2018-03-16T08:15:30.795Z,9.96
2018-03-16T08:16:30.770Z,10.09
2018-03-16T08:17:30.801Z,10.07
2018-03-16T08:18:30.808Z,10.01
2018-03-16T08:19:30.882Z,10.06
2018-03-16T08:20:30.775Z,10.09
2018-03-16T08:21:30.748Z,10.19
2018-03-16T08:22:30.848Z,10.15
2018-03-16T08:23:30.751Z,10.18
2018-03-16T08:24:30.840Z,10.24
2018-03-16T08:25:30.728Z,10.33
2018-03-16T08:26:30.730Z,10.28
2018-03-16T08:27:30.718Z,10.28
2018-03-16T08:28:30.731Z,10.37
2018-03-16T08:29:40.160Z,10.40
2018-03-16T08:31:24.119Z,10.37
2018-03-16T08:32:24.139Z,10.42
2018-03-16T08:33:24.111Z,10.51
2018-03-16T08:34:24.177Z,10.42
2018-03-16T08:35:24.081Z,10.33
2018-03-16T08:36:24.074Z,10.25
2018-03-16T08:38:45.680Z,10.32
2018-03-16T08:39:45.126Z,10.43
2018-03-16T08:40:45.132Z,10.39
2018-03-16T08:41:45.356Z,10.39
2018-03-16T08:42:45.107Z,10.42
2018-03-16T08:43:45.081Z,10.40
2018-03-16T08:44:45.121Z,10.60
2018-03-16T08:45:53.967Z,10.55
2018-03-16T08:47:38.952Z,10.55
2018-03-16T08:48:38.864Z,10.63
2018-03-16T08:49:38.980Z,10.65
2018-03-16T08:50:39.054Z,10.65
2018-03-16T08:51:38.835Z,10.60
2018-03-16T08:52:38.825Z,10.63
2018-03-16T08:53:38.830Z,10.62
2018-03-16T08:54:38.821Z,10.71
2018-03-16T08:55:38.817Z,10.70
2018-03-16T08:56:38.834Z,10.63
2018-03-16T08:57:38.803Z,10.70
2018-03-16T08:58:38.811Z,10.81
2018-03-16T08:59:38.803Z,10.86
2018-03-16T09:00:38.795Z,11.02
2018-03-16T09:01:38.792Z,10.95
2018-03-16T09:02:38.801Z,10.86
2018-03-16T09:03:38.792Z,10.71
2018-03-16T09:04:38.811Z,10.60
2018-03-16T09:05:38.773Z,10.60
2018-03-16T09:06:38.780Z,10.63
2018-03-16T09:07:38.776Z,10.66
2018-03-16T09:08:38.764Z,10.71
2018-03-16T09:09:38.764Z,10.68
2018-03-16T09:10:38.760Z,10.71
2018-03-16T09:11:38.836Z,10.55
2018-03-16T09:12:38.828Z,10.59
2018-03-16T09:13:38.741Z,10.60
2018-03-16T09:14:38.735Z,10.56
2018-03-16T09:15:38.763Z,10.70
2018-03-16T09:16:38.744Z,10.65
2018-03-16T09:17:38.747Z,10.62
2018-03-16T09:18:38.723Z,10.68
2018-03-16T09:19:38.747Z,10.71
2018-03-16T09:20:38.724Z,10.71
2018-03-16T09:21:38.707Z,10.66
2018-03-16T09:22:38.702Z,10.60
2018-03-16T09:23:38.698Z,10.62
2018-03-16T09:24:38.705Z,10.63
2018-03-16T09:25:38.711Z,10.63
2018-03-16T09:26:38.714Z,10.70
2018-03-16T09:27:38.701Z,10.70
2018-03-16T09:28:38.684Z,10.73
2018-03-16T09:29:38.668Z,10.68
2018-03-16T09:30:38.675Z,10.74
2018-03-16T09:31:38.670Z,10.68
2018-03-16T09:32:38.665Z,10.71
2018-03-16T09:33:38.656Z,10.76
2018-03-16T09:34:38.647Z,10.76
2018-03-16T09:35:38.647Z,10.71
2018-03-16T09:36:38.660Z,10.66
2018-03-16T09:37:38.642Z,10.73
2018-03-16T09:38:38.634Z,10.68
2018-03-16T09:39:38.682Z,10.83
2018-03-16T09:40:38.624Z,10.78
2018-03-16T09:41:38.626Z,10.88
2018-03-16T09:43:59.690Z,10.98
2018-03-16T09:44:59.692Z,11.24
2018-03-16T09:45:59.702Z,11.25
2018-03-16T09:46:59.738Z,11.25
2018-03-16T09:47:59.661Z,11.36
2018-03-16T09:48:59.661Z,11.39
2018-03-16T09:49:59.684Z,11.43
2018-03-16T09:50:59.668Z,11.47
2018-03-16T09:53:20.720Z,11.43
2018-03-16T09:54:20.710Z,11.47
2018-03-16T09:55:29.390Z,11.46
2018-03-16T09:57:23.097Z,11.49
2018-03-16T09:58:22.769Z,11.67
2018-03-16T10:00:08.519Z,11.78
2018-03-16T10:01:08.473Z,11.80
2018-03-16T10:02:08.572Z,11.75
2018-03-16T10:03:08.445Z,11.90
2018-03-16T10:04:08.430Z,11.93
2018-03-16T10:05:08.430Z,11.99
2018-03-16T10:06:08.427Z,12.11
2018-03-16T10:07:08.429Z,12.23
2018-03-16T10:08:08.433Z,12.16
2018-03-16T10:09:08.425Z,12.15
2018-03-16T10:10:08.433Z,12.19
2018-03-16T10:11:08.471Z,12.16
2018-03-16T10:12:08.483Z,12.31
2018-03-16T10:13:08.487Z,12.19
2018-03-16T10:14:08.498Z,12.13
2018-03-16T10:15:08.461Z,12.12
2018-03-16T10:16:08.424Z,12.04
2018-03-16T10:17:08.406Z,12.06
2018-03-16T10:18:08.490Z,12.20
2018-03-16T10:19:08.500Z,12.21
2018-03-16T10:20:08.424Z,12.19
2018-03-16T10:21:08.444Z,12.01
2018-03-16T10:22:08.409Z,12.31
2018-03-16T10:23:08.430Z,12.49
2018-03-16T10:24:08.384Z,12.24
2018-03-16T10:25:08.376Z,12.26
2018-03-16T10:26:08.402Z,12.29
2018-03-16T10:27:08.436Z,12.16
2018-03-16T10:28:08.404Z,12.16
2018-03-16T10:29:08.359Z,12.12
2018-03-16T10:30:08.454Z,12.13
2018-03-16T10:31:08.456Z,12.12
2018-03-16T10:32:08.417Z,12.09
2018-03-16T10:33:08.347Z,11.99
2018-03-16T10:34:08.402Z,11.89
2018-03-16T10:35:08.387Z,11.86
2018-03-16T10:36:08.341Z,11.86
2018-03-16T10:37:08.390Z,11.80
2018-03-16T10:38:08.347Z,11.86
2018-03-16T10:39:08.323Z,11.77
2018-03-16T10:40:08.323Z,11.90
2018-03-16T10:41:08.335Z,11.97
2018-03-16T10:42:08.313Z,12.01
2018-03-16T10:43:08.310Z,12.08
2018-03-16T10:44:08.335Z,12.12
2018-03-16T10:45:08.314Z,12.13
2018-03-16T10:46:08.310Z,12.26
2018-03-16T10:47:08.295Z,12.13
2018-03-16T10:48:08.321Z,12.26
2018-03-16T10:49:08.295Z,12.29
2018-03-16T10:50:08.287Z,12.26
2018-03-16T10:51:08.284Z,12.38
2018-03-16T10:52:08.286Z,12.62
2018-03-16T10:53:08.290Z,12.45
2018-03-16T10:54:08.290Z,12.44
2018-03-16T10:55:08.271Z,12.12
2018-03-16T10:56:08.272Z,12.26
2018-03-16T10:57:08.265Z,12.20
2018-03-16T10:58:08.291Z,12.06
2018-03-16T10:59:08.281Z,11.93
2018-03-16T11:00:08.281Z,12.06
2018-03-16T11:01:08.251Z,12.06
2018-03-16T11:02:08.258Z,12.11
2018-03-16T11:03:08.250Z,12.27
2018-03-16T11:04:08.252Z,12.33
2018-03-16T11:05:08.239Z,12.26
2018-03-16T11:06:08.238Z,12.06
2018-03-16T11:07:08.236Z,12.19
2018-03-16T11:08:08.262Z,12.39
2018-03-16T11:09:08.255Z,12.38
2018-03-16T11:10:08.254Z,12.31
2018-03-16T11:11:08.270Z,12.15
2018-03-16T11:12:08.216Z,12.33
2018-03-16T11:13:17.086Z,12.23
2018-03-16T11:15:01.704Z,12.20
2018-03-16T11:16:01.621Z,12.30
2018-03-16T11:17:01.641Z,12.20
2018-03-16T11:18:01.638Z,12.11
2018-03-16T11:19:11.398Z,12.26
2018-03-16T11:20:55.092Z,12.12
2018-03-16T11:21:55.005Z,12.05
2018-03-16T11:22:55.050Z,12.06
2018-03-16T11:23:55.001Z,12.12
2018-03-16T11:24:55.249Z,12.30
2018-03-16T11:25:55.008Z,12.23
2018-03-16T11:26:54.967Z,12.12
2018-03-16T11:27:54.973Z,12.13
2018-03-16T11:28:54.985Z,12.26
2018-03-16T11:29:54.961Z,12.34
2018-03-16T11:30:54.971Z,12.12
2018-03-16T11:31:54.971Z,12.29
2018-03-16T11:32:54.948Z,12.27
2018-03-16T11:33:54.940Z,12.20
2018-03-16T11:34:54.957Z,12.13
2018-03-16T11:35:54.947Z,12.11
2018-03-16T11:36:54.932Z,12.13
2018-03-16T11:37:54.949Z,12.16
2018-03-16T11:38:54.938Z,12.13
2018-03-16T11:39:54.935Z,12.11
2018-03-16T11:40:54.922Z,12.08
2018-03-16T11:41:54.925Z,12.16
2018-03-16T11:42:54.944Z,12.11
2018-03-16T11:43:54.914Z,12.12
2018-03-16T11:44:54.905Z,12.11
2018-03-16T11:45:54.908Z,12.06
2018-03-16T11:46:54.908Z,12.12
2018-03-16T11:47:54.894Z,12.12
2018-03-16T11:48:54.951Z,12.13
2018-03-16T11:49:55.038Z,12.20
2018-03-16T11:50:54.995Z,12.44
2018-03-16T11:51:54.948Z,12.44
2018-03-16T11:52:54.932Z,12.60
2018-03-16T11:53:54.893Z,12.63
2018-03-16T11:54:54.877Z,12.63
2018-03-16T11:55:54.917Z,12.52
2018-03-16T11:56:54.861Z,12.74
2018-03-16T11:57:54.861Z,12.81
2018-03-16T11:58:54.891Z,12.77
2018-03-16T11:59:54.860Z,12.74
2018-03-16T12:00:54.870Z,12.88
2018-03-16T12:01:54.853Z,13.18
2018-03-16T12:02:54.849Z,13.09
2018-03-16T12:03:54.864Z,13.00
2018-03-16T12:04:54.874Z,13.20
2018-03-16T12:05:54.855Z,13.32
2018-03-16T12:06:54.847Z,13.51
2018-03-16T12:08:03.730Z,13.70
2018-03-16T12:09:48.274Z,13.32
2018-03-16T12:10:48.288Z,13.36
2018-03-16T12:11:48.253Z,13.18
2018-03-16T12:12:48.301Z,13.11
2018-03-16T12:13:48.231Z,12.89
2018-03-16T12:14:48.226Z,12.87
2018-03-16T12:15:48.221Z,12.78
2018-03-16T12:16:48.225Z,12.84
2018-03-16T12:17:48.239Z,12.95
2018-03-16T12:18:48.219Z,12.95
2018-03-16T12:19:48.240Z,12.85
2018-03-16T12:20:48.224Z,12.99
2018-03-16T12:21:48.217Z,13.09
2018-03-16T12:22:48.202Z,13.18
2018-03-16T12:23:48.230Z,13.25
2018-03-16T12:24:48.205Z,13.20
2018-03-16T12:25:48.202Z,13.12
2018-03-16T12:26:48.195Z,13.21
2018-03-16T12:27:48.223Z,13.24
2018-03-16T12:28:50.014Z,13.33
2018-03-16T12:29:48.191Z,13.33
2018-03-16T12:30:48.193Z,13.12
2018-03-16T12:31:48.235Z,13.15
2018-03-16T12:32:48.233Z,13.22
2018-03-16T12:33:48.181Z,13.44
2018-03-16T12:34:48.432Z,13.52
2018-03-16T12:35:48.214Z,13.62
2018-03-16T12:36:48.169Z,13.49
2018-03-16T12:37:48.219Z,13.52
2018-03-16T12:38:48.172Z,13.63
2018-03-16T12:39:48.188Z,13.61
2018-03-16T12:40:48.189Z,13.61
2018-03-16T12:41:48.193Z,13.70
2018-03-16T12:42:48.161Z,13.92
2018-03-16T12:43:48.175Z,14.06
2018-03-16T12:44:48.184Z,13.91
2018-03-16T12:45:48.188Z,13.81
2018-03-16T12:46:48.245Z,13.70
2018-03-16T12:47:48.178Z,13.83
2018-03-16T12:48:48.155Z,13.96
2018-03-16T12:49:48.156Z,13.99
2018-03-16T12:50:48.390Z,13.77
2018-03-16T12:51:48.157Z,13.70
2018-03-16T12:52:48.162Z,13.88
2018-03-16T12:53:48.165Z,13.70
2018-03-16T12:54:48.255Z,13.73
2018-03-16T12:55:48.199Z,13.71
2018-03-16T12:58:10.236Z,14.01
2018-03-16T12:59:10.338Z,13.94
2018-03-16T13:00:10.367Z,13.88
2018-03-16T13:01:10.235Z,14.09
2018-03-16T13:02:10.339Z,14.09
2018-03-16T13:03:10.255Z,14.13
2018-03-16T13:04:10.254Z,14.14
2018-03-16T13:05:10.210Z,14.02
2018-03-16T13:06:10.282Z,13.87
2018-03-16T13:07:10.181Z,13.76
2018-03-16T13:08:10.308Z,13.88
2018-03-16T13:09:10.176Z,13.84
2018-03-16T13:10:10.266Z,13.89
2018-03-16T13:11:10.212Z,13.92
2018-03-16T13:12:10.205Z,13.79
2018-03-16T13:13:10.210Z,13.77
2018-03-16T13:14:10.400Z,13.91
2018-03-16T13:15:10.231Z,13.98
2018-03-16T13:16:10.180Z,14.09
2018-03-16T13:17:10.269Z,14.09
2018-03-16T13:18:10.150Z,14.09
2018-03-16T13:19:10.236Z,14.25
2018-03-16T13:20:10.255Z,14.12
2018-03-16T13:21:10.147Z,14.14
2018-03-16T13:22:10.186Z,14.07
2018-03-16T13:23:10.185Z,14.07
2018-03-16T13:24:10.198Z,13.83
2018-03-16T13:25:10.158Z,13.91
2018-03-16T13:26:10.143Z,13.99
2018-03-16T13:27:10.230Z,14.09
2018-03-16T13:28:10.137Z,13.95
2018-03-16T13:29:10.129Z,13.98
2018-03-16T13:30:10.153Z,14.10
2018-03-16T13:31:10.137Z,14.01
2018-03-16T13:32:10.133Z,14.20
2018-03-16T13:33:10.174Z,14.32
2018-03-16T13:34:10.126Z,14.35
2018-03-16T13:35:10.131Z,14.43
2018-03-16T13:36:10.158Z,14.42
2018-03-16T13:37:10.118Z,14.31
2018-03-16T13:38:10.119Z,14.21
2018-03-16T13:39:10.243Z,14.20
2018-03-16T13:40:10.157Z,14.21
2018-03-16T13:41:10.163Z,14.19
2018-03-16T13:42:10.122Z,14.14
2018-03-16T13:43:10.105Z,14.12
2018-03-16T13:44:10.114Z,14.16
2018-03-16T13:45:10.116Z,14.09
2018-03-16T13:47:31.204Z,13.96
2018-03-16T13:48:31.220Z,14.12
2018-03-16T13:49:31.312Z,14.09
2018-03-16T13:50:31.289Z,13.95
2018-03-16T13:51:31.127Z,13.96
2018-03-16T13:52:31.151Z,13.96
2018-03-16T13:53:31.134Z,14.06
2018-03-16T13:54:39.847Z,14.04
2018-03-16T13:56:25.649Z,14.16
2018-03-16T13:57:25.531Z,14.10
2018-03-16T13:58:25.528Z,13.99
2018-03-16T13:59:25.518Z,13.95
2018-03-16T14:00:25.570Z,14.02
2018-03-16T14:01:25.667Z,14.16
2018-03-16T14:02:25.500Z,14.09
2018-03-16T14:03:25.491Z,14.19
2018-03-16T14:04:25.493Z,14.14
2018-03-16T14:05:25.486Z,14.20
2018-03-16T14:06:25.755Z,14.01
2018-03-16T14:07:25.538Z,14.02
2018-03-16T14:08:25.502Z,13.81
2018-03-16T14:09:25.481Z,13.76
2018-03-16T14:10:25.513Z,13.87
2018-03-16T14:11:25.493Z,13.99
2018-03-16T14:12:25.501Z,13.88
2018-03-16T14:13:25.487Z,13.73
2018-03-16T14:14:25.548Z,13.63
2018-03-16T14:15:25.506Z,13.74
2018-03-16T14:16:25.476Z,13.63
2018-03-16T14:17:25.476Z,13.61
2018-03-16T14:18:25.483Z,13.65
2018-03-16T14:19:25.522Z,13.80
2018-03-16T14:20:25.498Z,13.74
2018-03-16T14:21:25.482Z,13.79
2018-03-16T14:22:25.498Z,13.87
2018-03-16T14:23:25.513Z,13.79
2018-03-16T14:24:25.471Z,13.74
2018-03-16T14:25:25.486Z,13.62
2018-03-16T14:26:25.520Z,13.49
2018-03-16T14:27:25.469Z,13.47
2018-03-16T14:28:25.461Z,13.33
2018-03-16T14:29:25.460Z,13.30
2018-03-16T14:30:25.511Z,13.47
2018-03-16T14:31:25.492Z,13.47
2018-03-16T14:32:25.459Z,13.40
2018-03-16T14:33:25.548Z,13.36
2018-03-16T14:34:25.469Z,13.30
2018-03-16T14:35:25.451Z,13.36
2018-03-16T14:36:25.465Z,13.36
2018-03-16T14:37:25.464Z,13.46
2018-03-16T14:38:25.463Z,13.55
2018-03-16T14:39:25.472Z,13.55
2018-03-16T14:40:25.465Z,13.49
2018-03-16T14:41:25.459Z,13.40
2018-03-16T14:42:25.451Z,13.46
2018-03-16T14:43:25.478Z,13.44
2018-03-16T14:44:25.458Z,13.56
2018-03-16T14:45:25.478Z,13.58
2018-03-16T14:46:25.445Z,13.62
2018-03-16T14:47:25.461Z,13.69
2018-03-16T14:48:25.452Z,13.67
2018-03-16T14:49:25.440Z,13.76
2018-03-16T14:50:25.440Z,13.56
2018-03-16T14:51:25.438Z,13.70
2018-03-16T14:52:25.545Z,13.76
2018-03-16T14:53:25.479Z,13.81
2018-03-16T14:54:25.439Z,13.77
2018-03-16T14:55:25.432Z,13.79
2018-03-16T14:56:25.449Z,13.88
2018-03-16T14:57:25.456Z,13.71
2018-03-16T14:58:25.444Z,13.70
2018-03-16T14:59:25.463Z,13.80
2018-03-16T15:00:25.453Z,13.70
2018-03-16T15:01:25.431Z,13.56
2018-03-16T15:02:25.426Z,13.76
2018-03-16T15:03:25.426Z,13.87
2018-03-16T15:04:34.253Z,13.84
2018-03-16T15:06:20.110Z,13.96
2018-03-16T15:07:19.860Z,13.84
2018-03-16T15:08:19.876Z,13.89
2018-03-16T15:09:19.832Z,13.89
2018-03-16T15:10:19.850Z,13.92
2018-03-16T15:11:19.834Z,13.76
2018-03-16T15:12:19.962Z,13.88
2018-03-16T15:13:19.864Z,13.96
2018-03-16T15:14:19.825Z,14.06
2018-03-16T15:15:19.823Z,14.04
